Time;durP1;ratioP1;P1;durP2;ratioP2;P2;SDS_P1;SDS_P2;PMS_P1;PMS_P2;Temp;Humidity;BMP_temperature;BMP_pressure;BME280_temperature;BME280_humidity;BME280_pressure;Samples;Min_cycle;Max_cycle;Signal;HPM_P1;HPM_P2
2023/12/21 00:02:26;;;;;;;39.90;7.63;;;;;;;;;;5126351;27;20118;-86
2023/12/21 00:04:53;;;;;;;36.28;7.63;;;;;;;;;;5126549;27;20043;-87
2023/12/21 00:07:19;;;;;;;39.50;7.00;;;;;;;;;;5113261;27;20082;-85
2023/12/21 00:09:46;;;;;;;38.30;8.43;;;;;;;;;;5130971;27;20087;-84
2023/12/21 00:12:13;;;;;;;30.27;7.75;;;;;;;;;;5135928;27;20030;-85
2023/12/21 00:14:39;;;;;;;43.72;8.65;;;;;;;;;;5138071;27;20035;-83
2023/12/21 00:17:06;;;;;;;36.20;7.80;;;;;;;;;;5123973;27;20053;-88
2023/12/21 00:19:33;;;;;;;34.38;8.38;;;;;;;;;;5108255;27;20049;-84
2023/12/21 00:21:59;;;;;;;41.97;9.07;;;;;;;;;;5132445;27;20488;-82
2023/12/21 00:24:25;;;;;;;38.38;8.02;;;;;;;;;;5113961;27;20038;-85
2023/12/21 00:26:51;;;;;;;38.20;7.25;;;;;;;;;;5128608;27;20119;-84
2023/12/21 00:29:17;;;;;;;33.08;8.63;;;;;;;;;;5112860;27;20042;-83
2023/12/21 00:31:43;;;;;;;49.00;10.55;;;;;;;;;;5128225;27;20042;-86
2023/12/21 00:34:09;;;;;;;31.40;7.30;;;;;;;;;;5109175;27;20043;-85
2023/12/21 00:36:36;;;;;;;36.13;7.43;;;;;;;;;;5117458;27;20042;-86
2023/12/21 00:39:02;;;;;;;44.10;9.00;;;;;;;;;;5125585;27;20107;-84
2023/12/21 00:41:28;;;;;;;28.33;8.13;;;;;;;;;;5121258;27;20499;-84
2023/12/21 00:43:54;;;;;;;30.63;7.45;;;;;;;;;;5093196;27;20460;-84
2023/12/21 00:46:21;;;;;;;38.33;8.13;;;;;;;;;;5108842;27;20047;-83
2023/12/21 00:48:47;;;;;;;22.60;5.95;;;;;;;;;;5091723;27;20666;-84
2023/12/21 00:51:13;;;;;;;38.20;8.05;;;;;;;;;;5091371;27;20038;-83
2023/12/21 00:53:39;;;;;;;40.00;8.60;;;;;;;;;;5108762;27;20043;-86
2023/12/21 00:56:05;;;;;;;43.17;9.52;;;;;;;;;;5108600;27;20039;-83
2023/12/21 00:58:31;;;;;;;37.75;8.95;;;;;;;;;;5092139;27;20407;-84
2023/12/21 01:00:58;;;;;;;35.83;6.72;;;;;;;;;;5092266;27;20047;-86
2023/12/21 01:03:24;;;;;;;37.63;7.55;;;;;;;;;;5091637;27;20050;-84
2023/12/21 01:05:50;;;;;;;37.72;7.97;;;;;;;;;;5108539;27;20159;-84
2023/12/21 01:08:16;;;;;;;26.80;6.93;;;;;;;;;;5109002;27;20120;-82
2023/12/21 01:10:45;;;;;;;35.70;9.18;;;;;;;;;;5091577;27;20043;-85
2023/12/21 01:13:11;;;;;;;32.83;7.43;;;;;;;;;;5091358;27;20034;-83
2023/12/21 01:15:37;;;;;;;26.27;7.53;;;;;;;;;;5108248;27;20069;-83
2023/12/21 01:18:04;;;;;;;43.97;7.93;;;;;;;;;;5107285;27;20039;-84
2023/12/21 01:20:30;;;;;;;37.65;7.18;;;;;;;;;;5108420;27;20515;-85
2023/12/21 01:22:56;;;;;;;31.45;7.70;;;;;;;;;;5091325;27;20633;-84
2023/12/21 01:25:22;;;;;;;34.65;8.38;;;;;;;;;;5107688;27;20039;-83
2023/12/21 01:27:48;;;;;;;33.97;7.43;;;;;;;;;;5090525;27;20046;-83
2023/12/21 01:30:15;;;;;;;37.30;8.60;;;;;;;;;;5090488;27;20586;-85
2023/12/21 01:32:41;;;;;;;30.83;8.68;;;;;;;;;;5107601;27;20043;-85
2023/12/21 01:35:07;;;;;;;40.47;7.40;;;;;;;;;;5090494;27;20035;-83
2023/12/21 01:37:34;;;;;;;31.30;8.30;;;;;;;;;;5090616;27;20106;-83
2023/12/21 01:40:00;;;;;;;33.60;7.45;;;;;;;;;;5107579;27;20541;-83
2023/12/21 01:42:26;;;;;;;35.67;6.82;;;;;;;;;;5090655;27;20043;-83
2023/12/21 01:44:52;;;;;;;33.08;6.80;;;;;;;;;;5090807;27;20134;-85
2023/12/21 01:47:19;;;;;;;34.28;8.45;;;;;;;;;;5090581;27;20050;-82
2023/12/21 01:49:45;;;;;;;30.42;6.85;;;;;;;;;;5105872;27;20043;-83
2023/12/21 01:52:12;;;;;;;28.40;6.90;;;;;;;;;;5128174;27;20115;-83
2023/12/21 01:54:38;;;;;;;29.38;6.90;;;;;;;;;;5110428;27;20038;-84
2023/12/21 01:57:04;;;;;;;32.25;6.60;;;;;;;;;;5127676;27;20039;-83
2023/12/21 01:59:30;;;;;;;29.20;8.07;;;;;;;;;;5128201;27;20086;-83
2023/12/21 02:01:57;;;;;;;23.10;6.45;;;;;;;;;;5110521;27;20038;-83
2023/12/21 02:04:23;;;;;;;27.05;7.35;;;;;;;;;;5110099;27;20035;-84
2023/12/21 02:06:49;;;;;;;29.50;7.65;;;;;;;;;;5127314;27;20042;-83
2023/12/21 02:09:15;;;;;;;26.20;8.60;;;;;;;;;;5110009;27;20076;-82
2023/12/21 02:11:41;;;;;;;27.38;7.55;;;;;;;;;;5127179;27;20125;-84
2023/12/21 02:14:08;;;;;;;25.63;6.82;;;;;;;;;;5127169;27;20046;-84
2023/12/21 02:16:34;;;;;;;32.00;5.38;;;;;;;;;;5109717;27;20522;-83
2023/12/21 02:19:00;;;;;;;30.60;7.00;;;;;;;;;;5109740;27;20514;-84
2023/12/21 02:21:29;;;;;;;34.13;7.85;;;8.60;99.90;;;;;;5126934;27;20038;-85
2023/12/21 02:23:57;;;;;;;24.30;7.25;;;;;;;;;;5110399;27;20051;-84
2023/12/21 02:26:24;;;;;;;25.85;8.27;;;;;;;;;;5109947;27;20046;-82
2023/12/21 02:28:51;;;;;;;41.65;9.48;;;;;;;;;;5109882;27;20042;-83
2023/12/21 02:31:17;;;;;;;32.97;6.45;;;;;;;;;;5126358;27;20154;-82
2023/12/21 02:33:43;;;;;;;32.10;8.48;;;;;;;;;;5109941;27;20050;-85
2023/12/21 02:36:09;;;;;;;31.23;7.82;;;;;;;;;;5109002;27;20066;-82
2023/12/21 02:38:35;;;;;;;29.13;5.97;;;;;;;;;;5109096;27;20122;-82
2023/12/21 02:41:01;;;;;;;32.80;8.00;;;;;;;;;;5126219;27;20092;-83
2023/12/21 02:43:27;;;;;;;22.95;6.80;;;8.40;99.90;;;;;;5109629;27;20094;-84
2023/12/21 02:45:53;;;;;;;37.22;7.22;;;;;;;;;;5108983;27;20515;-85
2023/12/21 02:48:19;;;;;;;29.02;7.20;;;;;;;;;;5109100;27;20562;-83
2023/12/21 02:50:46;;;;;;;29.98;8.57;;;;;;;;;;5109559;27;20083;-83
2023/12/21 02:53:12;;;;;;;31.05;7.38;;;;;;;;;;5110029;27;20043;-82
2023/12/21 02:55:38;;;;;;;31.10;6.90;;;;;;;;;;5126754;27;20035;-84
2023/12/21 02:58:04;;;;;;;29.00;7.28;;;;;;;;;;5126801;27;20061;-83
2023/12/21 03:00:30;;;;;;;32.78;7.82;;;;;;;;;;5109612;27;20099;-84
2023/12/21 03:02:57;;;;;;;30.10;7.53;;;;;;;;;;5110020;27;20046;-83
2023/12/21 03:05:23;;;;;;;26.70;6.95;;;;;;;;;;5110036;27;20038;-83
2023/12/21 03:07:49;;;;;;;31.55;7.80;;;;;;;;;;5110119;27;20407;-83
2023/12/21 03:10:15;;;;;;;21.58;7.78;;;;;;;;;;5110110;27;20043;-83
2023/12/21 03:12:41;;;;;;;22.33;7.07;;;;;;;;;;5126971;27;20045;-82
2023/12/21 03:15:08;;;;;;;32.95;8.55;;;;;;;;;;5126429;27;20053;-82
2023/12/21 03:17:34;;;;;;;19.27;6.05;;;;;;;;;;5109026;27;20038;-83
2023/12/21 03:20:01;;;;;;;23.30;6.28;;;;;;;;;;5126147;27;20813;-84
2023/12/21 03:22:27;;;;;;;23.13;6.82;;;;;;;;;;5126048;27;20088;-83
2023/12/21 03:24:53;;;;;;;25.05;7.53;;;;;;;;;;5108933;27;20050;-83
2023/12/21 03:27:20;;;;;;;38.33;8.38;;;;;;;;;;5108330;27;20145;-83
2023/12/21 03:29:46;;;;;;;25.10;7.72;;;;;;;;;;5125210;27;20053;-82
2023/12/21 03:32:12;;;;;;;32.58;8.30;;;;;;;;;;5108449;27;20785;-82
2023/12/21 03:34:38;;;;;;;30.55;7.15;;;;;;;;;;5125117;27;20145;-84
2023/12/21 03:37:04;;;;;;;22.15;6.35;;;;;;;;;;5107962;27;20045;-82
2023/12/21 03:39:30;;;;;;;23.83;6.78;;;;;;;;;;5108252;27;20053;-82
2023/12/21 03:41:57;;;;;;;19.70;5.03;;;;;;;;;;5112571;27;20031;-83
2023/12/21 03:44:23;;;;;;;25.13;6.50;;;;;;;;;;5113376;27;20104;-82
2023/12/21 03:46:49;;;;;;;21.10;5.53;;;;;;;;;;5113386;27;20038;-82
2023/12/21 03:49:15;;;;;;;16.55;5.78;;;;;;;;;;5113769;27;20663;-84
2023/12/21 03:51:41;;;;;;;20.95;5.53;;;;;;;;;;5130732;27;20103;-83
2023/12/21 03:54:07;;;;;;;19.45;5.18;;;;;;;;;;5114402;27;20061;-83
2023/12/21 03:56:33;;;;;;;13.43;3.70;;;;;;;;;;5114135;27;20118;-84
2023/12/21 03:59:00;;;;;;;19.92;4.95;;;;;;;;;;5113240;27;20353;-86
2023/12/21 04:01:26;;;;;;;15.35;4.15;;;;;;;;;;5113216;27;20153;-87
2023/12/21 04:03:52;;;;;;;18.35;4.35;;;;;;;;;;5113108;27;20740;-84
2023/12/21 04:06:18;;;;;;;17.92;4.50;;;;;;;;;;5130067;27;20054;-87
2023/12/21 04:08:45;;;;;;;19.40;5.03;;;;;;;;;;5112587;27;20088;-85
2023/12/21 04:11:11;;;;;;;17.35;4.53;;;;;;;;;;5129906;27;20043;-85
2023/12/21 04:13:37;;;;;;;11.45;4.20;;;;;;;;;;5113030;27;20046;-88
2023/12/21 04:16:03;;;;;;;20.52;5.43;;;;;;;;;;5112029;27;20133;-85
2023/12/21 04:18:30;;;;;;;16.88;4.53;;;;;;;;;;5112323;27;20038;-86
2023/12/21 04:20:57;;;;;;;15.85;4.20;;;;;;;;;;5112445;27;20054;-86
2023/12/21 04:23:24;;;;;;;16.15;4.85;;;;;;;;;;5112874;27;20764;-86
2023/12/21 04:25:50;;;;;;;16.38;4.45;;;;;;;;;;5114132;27;20051;-85
2023/12/21 04:28:17;;;;;;;17.17;5.43;;;;;;;;;;5130735;27;20042;-85
2023/12/21 04:30:43;;;;;;;16.98;4.15;;;;;;;;;;5131498;27;20058;-85
2023/12/21 04:33:14;;;;;;;18.77;5.55;;;;;;;;;;5117561;27;20042;-85
2023/12/21 04:35:40;;;;;;;21.20;5.10;;;;;;;;;;5135135;27;20046;-85
2023/12/21 04:38:06;;;;;;;17.63;5.45;;;;;;;;;;5136102;27;20173;-84
2023/12/21 04:40:38;;;;;;;19.02;6.18;;;;;;;;;;5115239;27;20043;-85
2023/12/21 04:43:06;;;;;;;13.60;5.35;;;;;;;;;;5131019;27;20042;-85
2023/12/21 04:45:32;;;;;;;19.58;5.97;;;;;;;;;;5113076;27;20043;-85
2023/12/21 04:47:59;;;;;;;17.38;5.32;;;;;;;;;;5112751;27;20035;-86
2023/12/21 04:50:25;;;;;;;21.85;6.28;;;;;;;;;;5112720;27;20088;-84
2023/12/21 04:52:53;;;;;;;22.20;7.03;;;;;;;;;;5129235;27;20129;-87
2023/12/21 04:55:19;;;;;;;18.48;5.30;;;;;;;;;;5112615;27;20814;-85
2023/12/21 04:57:45;;;;;;;25.15;6.80;;;;;;;;;;5112469;27;20046;-85
2023/12/21 05:00:11;;;;;;;17.83;5.50;;;;;;;;;;5129066;27;20054;-85
2023/12/21 05:02:37;;;;;;;27.02;6.38;;;;;;;;;;5129523;27;20043;-86
2023/12/21 05:05:04;;;;;;;21.15;7.15;;;;;;;;;;5112475;27;20688;-86
2023/12/21 05:07:30;;;;;;;19.48;6.53;;;;;;;;;;5129334;27;20431;-87
2023/12/21 05:09:59;;;;;;;16.23;5.25;;;;;;;;;;5128114;27;20039;-84
2023/12/21 05:12:28;;;;;;;26.98;6.03;;;;;;;;;;5110794;27;20049;-84
2023/12/21 05:14:54;;;;;;;16.00;5.85;;;;;;;;;;5128183;27;20053;-86
2023/12/21 05:17:20;;;;;;;19.08;5.70;;;;;;;;;;5127874;27;20043;-84
2023/12/21 05:19:46;;;;;;;20.15;6.13;;;;;;;;;;5129149;27;20034;-85
2023/12/21 05:22:13;;;;;;;24.55;6.60;;;;;;;;;;5112058;27;20041;-86
2023/12/21 05:24:39;;;;;;;26.65;7.15;;;;;;;;;;5111143;27;20034;-84
2023/12/21 05:27:06;;;;;;;24.15;6.47;;;;;;;;;;5110790;27;20038;-86
2023/12/21 05:29:32;;;;;;;21.33;6.50;;;;;;;;;;5110466;27;20574;-84
2023/12/21 05:32:01;;;;;;;22.83;7.03;;;;;;;;;;5110386;27;20050;-86
2023/12/21 05:34:28;;;;;;;21.27;7.10;;;;;;;;;;5110414;27;20070;-87
2023/12/21 05:36:54;;;;;;;23.65;6.15;;;;;;;;;;5110405;27;20049;-86
2023/12/21 05:39:20;;;;;;;19.55;6.10;;;;;;;;;;5110855;27;20034;-86
2023/12/21 05:41:46;;;;;;;21.88;5.70;;;;;;;;;;5128561;27;20043;-86
2023/12/21 05:44:12;;;;;;;16.23;4.95;;;;;;;;;;5110880;27;20078;-84
2023/12/21 05:46:39;;;;;;;18.88;5.78;;;;;;;;;;5128062;27;20050;-85
2023/12/21 05:49:05;;;;;;;16.27;4.18;;;;;;;;;;5110786;27;20038;-85
2023/12/21 05:51:31;;;;;;;24.73;6.32;;;;;;;;;;5127957;27;20042;-83
2023/12/21 05:53:57;;;;;;;23.70;5.60;;;;;;;;;;5128025;27;20083;-85
2023/12/21 05:56:24;;;;;;;23.65;5.95;;;;;;;;;;5127893;27;20087;-87
2023/12/21 05:58:50;;;;;;;27.67;5.72;;;;;;;;;;5111283;27;20492;-83
2023/12/21 06:01:16;;;;;;;19.00;4.50;;;;;;;;;;5111788;27;20693;-86
2023/12/21 06:03:42;;;;;;;18.65;5.13;;;;;;;;;;5111323;27;20404;-88
2023/12/21 06:06:08;;;;;;;14.73;4.20;;;;;;;;;;5111081;27;20047;-85
2023/12/21 06:08:34;;;;;;;14.40;3.53;;;;;;;;;;5127356;27;20051;-86
2023/12/21 06:11:00;;;;;;;17.35;4.65;;;;;;;;;;5110107;27;20431;-87
2023/12/21 06:13:28;;;;;;;16.80;4.95;;;;;;;;;;5127457;27;20175;-85
2023/12/21 06:15:55;;;;;;;17.83;4.80;;;;;;;;;;5109591;27;20035;-85
2023/12/21 06:18:21;;;;;;;13.75;2.95;;;;;;;;;;5126976;27;20856;-87
2023/12/21 06:20:47;;;;;;;15.18;3.65;;;;;;;;;;5110032;27;20705;-82
2023/12/21 06:23:13;;;;;;;17.88;5.03;;;;;;;;;;5127204;27;20042;-82
2023/12/21 06:25:39;;;;;;;26.05;3.78;;;;;;;;;;5126642;27;20050;-82
2023/12/21 06:28:05;;;;;;;19.13;4.07;;;;;;;;;;5126371;27;20772;-81
2023/12/21 06:30:32;;;;;;;20.98;4.13;;;;;;;;;;5109870;27;20043;-81
2023/12/21 06:32:58;;;;;;;21.77;4.13;;;;;;;;;;5126823;27;20444;-83
2023/12/21 06:35:24;;;;;;;16.15;3.65;;;;;;;;;;5126826;27;20512;-81
2023/12/21 06:37:50;;;;;;;20.15;4.45;;;;;;;;;;5112615;27;20281;-81
2023/12/21 06:40:16;;;;;;;18.77;3.53;;;;;;;;;;5130585;27;20053;-81
2023/12/21 06:42:42;;;;;;;17.05;4.13;;;;;;;;;;5097042;27;20568;-80
2023/12/21 06:45:09;;;;;;;20.80;3.90;;;8.60;99.90;;;;;;5107272;27;20039;-80
2023/12/21 06:47:35;;;;;;;18.27;4.05;;;;;;;;;;5106204;27;20042;-80
2023/12/21 06:50:02;;;;;;;23.02;5.78;;;;;;;;;;5106906;27;20163;-80
2023/12/21 06:52:28;;;;;;;18.52;3.88;;;;;;;;;;5089934;27;20689;-79
2023/12/21 06:54:57;;;;;;;16.40;4.82;;;;;;;;;;5090278;27;20152;-79
2023/12/21 06:57:23;;;;;;;18.98;3.55;;;;;;;;;;5089270;27;20092;-80
2023/12/21 06:59:50;;;;;;;16.48;4.18;;;;;;;;;;5105877;27;20043;-80
2023/12/21 07:02:16;;;;;;;19.05;3.72;;;;;;;;;;5088463;27;20582;-79
2023/12/21 07:04:42;;;;;;;13.45;2.78;;;;;;;;;;5088934;28;20045;-81
2023/12/21 07:07:08;;;;;;;13.60;3.10;;;;;;;;;;5088689;27;20540;-80
2023/12/21 07:09:34;;;;;;;12.45;3.53;;;;;;;;;;5087595;28;20039;-81
2023/12/21 07:12:00;;;;;;;13.38;3.33;;;;;;;;;;5104802;27;20246;-80
2023/12/21 07:14:27;;;;;;;13.25;3.25;;;;;;;;;;5104814;28;20407;-80
2023/12/21 07:16:53;;;;;;;12.95;2.70;;;;;;;;;;5105418;27;20096;-80
2023/12/21 07:19:19;;;;;;;14.02;4.72;;;;;;;;;;5105332;28;20035;-81
2023/12/21 07:21:46;;;;;;;9.65;2.88;;;;;;;;;;5105531;28;20053;-80
2023/12/21 07:24:12;;;;;;;11.07;1.88;;;;;;;;;;5088479;28;20531;-81
2023/12/21 07:26:38;;;;;;;15.35;2.75;;;;;;;;;;5088146;28;20043;-82
2023/12/21 07:29:04;;;;;;;10.57;1.70;;;;;;;;;;5088021;28;20111;-81
2023/12/21 07:31:30;;;;;;;10.65;1.52;;;;;;;;;;5104863;28;20089;-80
2023/12/21 07:33:56;;;;;;;8.95;1.63;;;;;;;;;;5087780;28;20043;-81
2023/12/21 07:36:23;;;;;;;11.52;1.88;;;;;;;;;;5105306;28;20050;-81
2023/12/21 07:38:49;;;;;;;8.88;1.50;;;;;;;;;;5105311;27;20148;-80
2023/12/21 07:41:15;;;;;;;6.28;1.00;;;;;;;;;;5087941;28;20039;-80
2023/12/21 07:43:41;;;;;;;7.00;1.20;;;;;;;;;;5087791;28;20573;-81
2023/12/21 07:46:10;;;;;;;6.22;1.02;;;;;;;;;;5087706;28;20043;-80
2023/12/21 07:48:36;;;;;;;9.73;1.65;;;;;;;;;;5087741;28;20039;-82
2023/12/21 07:51:03;;;;;;;7.32;1.55;;;;;;;;;;5087972;27;20681;-80
2023/12/21 07:53:29;;;;;;;9.25;2.10;;;;;;;;;;5105333;28;20669;-80
2023/12/21 07:55:55;;;;;;;9.43;1.00;;;;;;;;;;5104831;27;20039;-81
2023/12/21 07:58:22;;;;;;;11.15;1.17;;;;;;;;;;5087839;28;20043;-80
2023/12/21 08:00:48;;;;;;;4.60;0.80;;;;;;;;;;5087548;27;20085;-81
2023/12/21 08:03:15;;;;;;;5.65;1.08;;;;;;;;;;5087412;28;20047;-81
2023/12/21 08:05:41;;;;;;;8.80;1.60;;;;;;;;;;5088000;28;20059;-81
2023/12/21 08:08:07;;;;;;;9.80;0.88;;;;;;;;;;5087690;28;20071;-80
2023/12/21 08:10:33;;;;;;;4.55;0.82;;;;;;;;;;5104636;28;20396;-82
2023/12/21 08:12:59;;;;;;;4.07;0.70;;;;;;;;;;5087472;28;20122;-81
2023/12/21 08:15:26;;;;;;;6.38;1.42;;;;;;;;;;5092932;27;20040;-80
2023/12/21 08:17:56;;;;;;;4.05;0.50;;;;;;;;;;5115382;27;20042;-80
2023/12/21 08:20:23;;;;;;;5.03;1.20;;;;;;;;;;5114941;27;20035;-80
2023/12/21 08:22:49;;;;;;;4.15;0.75;;;;;;;;;;5095725;27;20487;-81
2023/12/21 08:25:15;;;;;;;4.32;0.55;;;;;;;;;;5097412;27;20035;-79
2023/12/21 08:27:42;;;;;;;6.40;0.93;;;;;;;;;;5118047;27;20120;-80
2023/12/21 08:30:11;;;;;;;3.08;0.30;;;;;;;;;;5099434;27;20049;-80
2023/12/21 08:32:37;;;;;;;5.65;0.50;;;;;;;;;;5101947;27;20769;-79
2023/12/21 08:35:04;;;;;;;6.13;0.60;;;8.90;99.90;;;;;;5099911;27;20041;-81
2023/12/21 08:37:30;;;;;;;4.28;0.50;;;;;;;;;;5118649;27;20499;-81
2023/12/21 08:39:56;;;;;;;2.20;0.30;;;;;;;;;;5100775;27;20062;-81
2023/12/21 08:42:23;;;;;;;2.35;0.47;;;;;;;;;;5100511;27;20526;-81
2023/12/21 08:44:49;;;;;;;4.75;0.50;;;;;;;;;;5102797;27;20155;-82
2023/12/21 08:47:15;;;;;;;5.75;0.40;;;;;;;;;;5100374;27;20046;-81
2023/12/21 08:49:41;;;;;;;4.57;0.50;;;;;;;;;;5100275;27;20086;-85
2023/12/21 08:52:09;;;;;;;2.40;0.40;;;;;;;;;;5131454;27;20474;-86
2023/12/21 08:54:39;;;;;;;8.30;0.63;;;;;;;;;;5129684;27;20037;-87
2023/12/21 08:57:05;;;;;;;3.72;1.27;;;;;;;;;;5107513;27;20034;-85
2023/12/21 08:59:31;;;;;;;5.53;0.75;;;;;;;;;;5124356;27;20043;-89
2023/12/21 09:01:58;;;;;;;6.32;0.60;;;;;;;;;;5107491;27;20039;-86
2023/12/21 09:04:25;;;;;;;8.35;1.02;;;;;;;;;;5107020;27;20039;-84
2023/12/21 09:06:51;;;;;;;7.05;0.73;;;;;;;;;;5121833;27;20106;-86
2023/12/21 09:09:17;;;;;;;5.57;1.00;;;;;;;;;;5107613;27;20042;-84
2023/12/21 09:11:43;;;;;;;6.35;1.30;;;;;;;;;;5105955;27;20039;-85
2023/12/21 09:14:09;;;;;;;7.43;1.00;;;;;;;;;;5113149;27;20046;-89
2023/12/21 09:16:36;;;;;;;5.50;0.73;;;;;;;;;;5111143;27;20123;-89
2023/12/21 09:19:03;;;;;;;11.77;1.10;;;;;;;;;;5122849;27;20437;-86
2023/12/21 09:21:29;;;;;;;5.70;0.88;;;;;;;;;;5105605;27;20130;-88
2023/12/21 09:23:59;;;;;;;12.07;1.55;;;;;;;;;;5120832;27;20038;-85
2023/12/21 09:26:25;;;;;;;7.93;1.45;;;;;;;;;;5105101;27;20048;-85
2023/12/21 09:28:51;;;;;;;13.40;1.30;;;;;;;;;;5109641;27;20433;-88
2023/12/21 09:31:17;;;;;;;11.82;1.25;;;;;;;;;;5103153;27;20860;-87
2023/12/21 09:33:43;;;;;;;13.10;2.15;;;;;;;;;;5103611;27;20083;-86
2023/12/21 09:36:12;;;;;;;13.43;2.13;;;;;;;;;;5118217;27;20031;-89
2023/12/21 09:38:38;;;;;;;11.27;0.88;;;;;;;;;;5123875;27;20094;-91
2023/12/21 09:41:07;;;;;;;8.45;1.30;;;;;;;;;;5104388;27;20464;-85
2023/12/21 09:43:34;;;;;;;12.02;1.95;;;;;;;;;;5118663;27;20046;-87
2023/12/21 09:46:01;;;;;;;6.45;0.32;;;9.40;99.90;;;;;;5117792;27;20597;-87
2023/12/21 09:48:30;;;;;;;11.05;1.13;;;9.40;99.90;;;;;;5101437;27;20049;-85
2023/12/21 09:51:02;;;;;;;11.35;2.25;;;9.40;99.90;;;;;;5100601;27;20454;-86
2023/12/21 09:53:30;;;;;;;13.57;2.70;;;9.40;99.90;;;;;;5120101;27;20027;-90
2023/12/21 09:55:58;;;;;;;16.45;2.25;;;;;;;;;;5101461;27;20039;-86
2023/12/21 09:58:24;;;;;;;23.17;2.03;;;;;;;;;;5103618;27;20039;-87
2023/12/21 10:00:50;;;;;;;23.30;3.85;;;;;;;;;;5117896;27;20089;-85
2023/12/21 10:03:18;;;;;;;16.50;1.50;;;;;;;;;;5117164;27;20106;-87
2023/12/21 10:05:45;;;;;;;18.38;1.35;;;;;;;;;;5113326;27;20043;-85
2023/12/21 10:08:12;;;;;;;14.32;1.52;;;;;;;;;;5120473;27;20444;-86
2023/12/21 10:10:38;;;;;;;10.52;2.35;;;;;;;;;;5120119;27;20071;-87
2023/12/21 10:13:04;;;;;;;17.27;3.42;;;;;;;;;;5100796;27;20043;-86
2023/12/21 10:15:32;;;;;;;17.13;2.58;;;;;;;;;;5100140;27;20103;-89
2023/12/21 10:17:59;;;;;;;15.07;1.75;;;;;;;;;;5100051;27;20042;-90
2023/12/21 10:20:26;;;;;;;15.63;2.80;;;;;;;;;;5104882;27;20039;-90
2023/12/21 10:22:52;;;;;;;19.13;3.33;;;;;;;;;;5099342;27;20042;-86
2023/12/21 10:25:21;;;;;;;18.60;3.25;;;;;;;;;;5122733;27;20554;-88
2023/12/21 10:27:54;;;;;;;14.00;1.85;;;;;;;;;;5096081;27;20046;-88
2023/12/21 10:30:25;;;;;;;15.27;2.17;;;9.60;99.90;;;;;;5094735;27;20050;-92
2023/12/21 10:32:57;;;;;;;16.77;1.98;;;9.60;99.90;;;;;;5103518;27;20453;-90
2023/12/21 10:35:23;;;;;;;23.92;2.22;;;;;;;;;;5103000;27;20118;-88
2023/12/21 10:37:50;;;;;;;19.08;2.92;;;;;;;;;;5103515;27;20088;-88
2023/12/21 10:40:17;;;;;;;18.70;2.42;;;;;;;;;;5102360;27;20065;-90
2023/12/21 10:42:49;;;;;;;25.55;4.38;;;;;;;;;;5114354;27;20038;-87
2023/12/21 10:45:16;;;;;;;25.55;2.92;;;9.70;99.90;;;;;;5102896;27;20035;-88
2023/12/21 10:47:52;;;;;;;25.15;2.63;;;9.90;99.90;;;;;;5122703;27;20043;-89
2023/12/21 10:50:22;;;;;;;21.23;2.22;;;;;;;;;;5116252;27;20130;-86
2023/12/21 10:52:48;;;;;;;21.45;2.30;;;;;;;;;;5109684;27;20073;-88
2023/12/21 10:55:18;;;;;;;20.05;2.50;;;9.60;99.90;;;;;;5110975;27;20476;-88
2023/12/21 10:57:46;;;;;;;16.60;1.90;;;9.60;99.90;;;;;;5112085;27;20063;-88
2023/12/21 11:00:15;;;;;;;13.85;2.38;;;9.60;99.90;;;;;;5102775;27;20067;-88
2023/12/21 11:02:48;;;;;;;16.67;2.97;;;;;;;;;;5117843;27;20099;-91
2023/12/21 11:05:19;;;;;;;25.95;4.65;;;;;;;;;;5103614;27;20039;-90
2023/12/21 11:07:54;;;;;;;25.52;2.90;;;;;;;;;;5100421;27;20034;-89
2023/12/21 11:10:22;;;;;;;22.48;4.25;;;9.80;99.90;;;;;;5126697;27;20046;-88
2023/12/21 11:12:49;;;;;;;20.92;2.30;;;;;;;;;;5130927;27;20034;-91
2023/12/21 11:15:18;;;;;;;29.15;5.00;;;9.70;99.90;;;;;;5130321;27;20117;-89
2023/12/21 11:17:49;;;;;;;13.00;1.33;;;9.30;99.90;;;;;;5114936;27;20453;-87
2023/12/21 11:20:20;;;;;;;28.37;5.93;;;9.70;99.90;;;;;;5131002;27;20043;-87
2023/12/21 11:22:47;;;;;;;14.90;2.05;;;;;;;;;;5108132;28;20288;-87
2023/12/21 11:25:13;;;;;;;25.55;2.90;;;;;;;;;;5102902;27;20260;-89
2023/12/21 11:27:42;;;;;;;23.55;2.17;;;;;;;;;;5104529;27;20042;-86
2023/12/21 11:30:12;;;;;;;14.93;1.75;;;;;;;;;;5104844;27;20034;-88
2023/12/21 11:32:41;;;;;;;22.52;3.05;;;;;;;;;;5101631;27;20035;-89
2023/12/21 11:35:23;;;;;;;27.50;2.45;;;;;;;;;;5122430;27;20109;-87
2023/12/21 11:37:56;;;;;;;28.40;2.13;;;;;;;;;;5102525;27;20867;-90
2023/12/21 11:40:24;;;;;;;24.67;2.75;;;9.60;99.90;;;;;;5106154;27;20054;-88
2023/12/21 11:42:51;;;;;;;18.52;2.38;;;;;;;;;;5108273;27;20042;-90
2023/12/21 11:45:23;;;;;;;16.98;2.30;;;9.60;99.90;;;;;;5127811;27;20488;-90
2023/12/21 11:47:50;;;;;;;14.00;1.38;;;;;;;;;;5110408;27;20043;-87
2023/12/21 11:50:19;;;;;;;32.83;2.80;;;;;;;;;;5121346;28;20503;-91
2023/12/21 11:52:45;;;;;;;20.98;2.70;;;;;;;;;;5104468;27;20488;-89
2023/12/21 11:55:25;;;;;;;21.48;2.10;;;9.60;99.90;;;;;;5121565;27;20035;-91
2023/12/21 11:58:18;;;;;;;20.67;2.38;;;9.50;99.90;;;;;;5106310;27;20058;-91
2023/12/21 12:00:49;;;;;;;24.10;2.53;;;9.50;99.90;;;;;;5130088;27;20035;-87
2023/12/21 12:03:17;;;;;;;28.40;2.60;;;9.50;99.90;;;;;;5107170;27;20066;-87
2023/12/21 12:05:44;;;;;;;27.27;4.78;;;;;;;;;;5107291;27;20070;-88
2023/12/21 12:08:10;;;;;;;24.80;4.05;;;;;;;;;;5130948;27;20053;-88
2023/12/21 12:10:39;;;;;;;31.75;4.38;;;9.40;99.90;;;;;;5107184;27;20070;-87
2023/12/21 12:13:06;;;;;;;34.40;2.72;;;;;;;;;;5101847;27;20569;-89
2023/12/21 12:15:32;;;;;;;29.05;4.70;;;;;;;;;;5121372;27;20441;-91
2023/12/21 12:17:58;;;;;;;39.20;4.55;;;;;;;;;;5117674;27;20039;-88
2023/12/21 12:20:25;;;;;;;26.65;2.83;;;;;;;;;;5129187;27;20092;-88
2023/12/21 12:22:52;;;;;;;25.95;3.20;;;9.40;99.90;;;;;;5110183;27;20192;-88
2023/12/21 12:25:19;;;;;;;27.92;3.22;;;13.70;99.90;;;;;;5102263;27;20522;-90
2023/12/21 12:27:47;;;;;;;23.90;3.35;;;9.40;99.90;;;;;;5111893;27;20056;-88
2023/12/21 12:30:15;;;;;;;28.20;2.20;;;;;;;;;;5133194;27;20043;-87
2023/12/21 12:32:42;;;;;;;29.05;3.20;;;9.30;99.90;;;;;;5101944;27;20061;-87
2023/12/21 12:35:12;;;;;;;14.70;1.50;;;;;;;;;;5101447;27;20043;-88
2023/12/21 12:37:38;;;;;;;30.75;2.90;;;;;;;;;;5129499;27;20037;-87
2023/12/21 12:40:06;;;;;;;31.52;2.78;;;;;;;;;;5125988;27;20612;-89
2023/12/21 12:42:33;;;;;;;36.28;3.50;;;;;;;;;;5131054;27;20034;-88
2023/12/21 12:45:00;;;;;;;28.50;2.88;;;9.30;99.90;;;;;;5122906;27;20066;-87
2023/12/21 12:47:29;;;;;;;25.48;2.92;;;9.20;99.90;;;;;;5113877;27;20050;-88
2023/12/21 12:49:57;;;;;;;24.25;2.28;;;9.20;99.90;;;;;;5114770;27;20046;-88
2023/12/21 12:52:24;;;;;;;21.40;2.95;;;;;;;;;;5113683;27;20495;-91
2023/12/21 12:54:50;;;;;;;32.50;3.53;;;;;;;;;;5132723;27;20053;-88
2023/12/21 12:57:17;;;;;;;21.88;3.45;;;;;;;;;;5133972;27;20035;-90
2023/12/21 12:59:47;;;;;;;25.65;2.60;;;;;;;;;;5134037;27;20881;-90
2023/12/21 13:02:15;;;;;;;20.10;2.25;;;;;;;;;;5133959;27;20039;-87
2023/12/21 13:04:41;;;;;;;28.23;4.15;;;;;;;;;;5132527;27;20103;-90
2023/12/21 13:07:07;;;;;;;29.30;5.50;;;;;;;;;;5129229;27;20050;-87
2023/12/21 13:09:35;;;;;;;20.85;2.65;;;;;;;;;;5131350;27;20919;-89
2023/12/21 13:12:01;;;;;;;19.85;2.45;;;;;;;;;;5131511;27;20055;-87
2023/12/21 13:14:27;;;;;;;28.02;3.90;;;;;;;;;;5131635;27;20045;-88
2023/12/21 13:16:54;;;;;;;30.95;4.07;;;;;;;;;;5132074;27;20038;-86
2023/12/21 13:19:22;;;;;;;25.13;3.92;;;9.00;99.90;;;;;;5131358;27;20455;-91
2023/12/21 13:21:49;;;;;;;16.10;3.33;;;;;;;;;;5115342;27;20495;-85
2023/12/21 13:24:15;;;;;;;15.75;2.20;;;;;;;;;;5133222;27;20590;-88
2023/12/21 13:26:41;;;;;;;13.50;1.67;;;;;;;;;;5133392;27;20091;-91
2023/12/21 13:29:08;;;;;;;15.35;1.77;;;;;;;;;;5131548;27;20546;-86
2023/12/21 13:31:34;;;;;;;16.65;2.08;;;;;;;;;;5131939;27;20068;-91
2023/12/21 13:34:01;;;;;;;18.95;1.40;;;;;;;;;;5131803;27;20558;-89
2023/12/21 13:36:27;;;;;;;27.42;3.25;;;;;;;;;;5134164;27;20046;-89
2023/12/21 13:38:54;;;;;;;24.45;3.38;;;;;;;;;;5133532;27;20092;-86
2023/12/21 13:41:20;;;;;;;21.85;2.03;;;;;;;;;;5133312;27;20441;-86
2023/12/21 13:43:46;;;;;;;20.80;2.03;;;;;;;;;;5134022;27;20047;-88
2023/12/21 13:46:13;;;;;;;22.48;2.20;;;;;;;;;;5131341;27;20442;-87
2023/12/21 13:48:39;;;;;;;22.95;3.05;;;;;;;;;;5129232;27;20038;-89
2023/12/21 13:51:05;;;;;;;19.80;2.80;;;;;;;;;;5113965;27;20035;-90
2023/12/21 13:53:32;;;;;;;23.88;2.75;;;;;;;;;;5129988;27;20042;-87
2023/12/21 13:55:58;;;;;;;24.77;3.08;;;;;;;;;;5129733;27;20041;-94
2023/12/21 13:58:24;;;;;;;28.67;2.60;;;;;;;;;;5112307;27;20039;-86
2023/12/21 14:00:51;;;;;;;32.78;4.22;;;;;;;;;;5112916;27;20042;-87
2023/12/21 14:03:18;;;;;;;29.50;3.13;;;;;;;;;;5112871;27;20122;-86
2023/12/21 14:05:44;;;;;;;28.73;3.63;;;;;;;;;;5112834;27;20050;-90
2023/12/21 14:08:14;;;;;;;32.65;5.22;;;;;;;;;;5112590;27;20046;-89
2023/12/21 14:10:41;;;;;;;33.28;4.28;;;;;;;;;;5112149;27;20138;-85
2023/12/21 14:13:07;;;;;;;28.00;3.85;;;;;;;;;;5149971;27;20118;-90
2023/12/21 14:15:35;;;;;;;16.33;3.10;;;;;;;;;;5131150;27;20039;-88
2023/12/21 14:18:01;;;;;;;25.35;2.53;;;;;;;;;;5115649;27;20042;-90
2023/12/21 14:20:27;;;;;;;15.07;2.80;;;;;;;;;;5116066;27;20038;-89